Time;durP1;ratioP1;P1;durP2;ratioP2;P2;SDS_P1;SDS_P2;PMS_P1;PMS_P2;Temp;Humidity;BMP_temperature;BMP_pressure;BME280_temperature;BME280_humidity;BME280_pressure;Samples;Min_cycle;Max_cycle;Signal;HPM_P1;HPM_P2
2020/12/28 00:01:53;;;;;;;5.97;4.40;;;;;;;-0.49;87.97;92262.31;5069263;28;20169;-74
2020/12/28 00:04:19;;;;;;;4.60;4.20;;;;;;;-0.45;87.80;92257.69;5074825;28;20275;-74
2020/12/28 00:06:47;;;;;;;4.37;3.97;;;;;;;-0.49;87.87;92261.53;5092849;28;20198;-74
2020/12/28 00:09:13;;;;;;;5.27;4.37;;;;;;;-0.45;87.70;92263.56;5067518;28;20177;-73
2020/12/28 00:11:39;;;;;;;3.97;3.57;;;;;;;-0.45;87.69;92250.03;5062903;28;20176;-74
2020/12/28 00:14:04;;;;;;;5.57;4.63;;;;;;;-0.37;87.91;92255.91;5052638;28;20178;-73
2020/12/28 00:16:31;;;;;;;4.80;4.23;;;;;;;-0.37;87.65;92255.13;5071790;28;20691;-73
2020/12/28 00:18:56;;;;;;;4.97;3.93;;;;;;;-0.36;87.75;92256.72;5037511;28;20176;-73
2020/12/28 00:21:22;;;;;;;7.00;4.50;;;;;;;-0.43;87.83;92248.94;5052325;28;20656;-74
2020/12/28 00:23:47;;;;;;;4.30;3.80;;;;;;;-0.35;88.02;92238.72;5072384;28;20188;-74
2020/12/28 00:26:12;;;;;;;4.67;4.07;;;;;;;-0.41;87.64;92239.38;5053994;28;20193;-74
2020/12/28 00:28:37;;;;;;;4.60;4.10;;;;;;;-0.38;87.85;92241.59;5071990;28;20189;-73
2020/12/28 00:31:03;;;;;;;5.20;4.40;;;;;;;-0.39;87.77;92241.75;5070886;28;20714;-74
2020/12/28 00:33:28;;;;;;;4.40;3.93;;;;;;;-0.39;87.57;92231.56;5050574;28;20287;-73
2020/12/28 00:35:53;;;;;;;4.23;3.83;;;;;;;-0.38;87.78;92235.69;5068386;28;20204;-74
2020/12/28 00:38:19;;;;;;;4.40;4.00;;;;;;;-0.33;87.87;92233.47;5074226;28;20203;-74
2020/12/28 00:40:44;;;;;;;4.30;3.90;;;;;;;-0.38;87.49;92228.03;5070995;28;20639;-74
2020/12/28 00:43:09;;;;;;;4.20;3.80;;;;;;;-0.33;88.12;92231.69;5054004;28;20192;-74
2020/12/28 00:45:35;;;;;;;4.93;4.37;;;;;;;-0.38;88.01;92233.94;5053954;28;20198;-74
2020/12/28 00:48:01;;;;;;;4.33;3.93;;;;;;;-0.36;88.19;92241.41;5072014;28;20176;-74
2020/12/28 00:50:26;;;;;;;4.20;3.80;;;;;;;-0.31;88.20;92239.19;5054025;28;20177;-74
2020/12/28 00:52:51;;;;;;;3.60;3.30;;;;;;;-0.35;88.03;92237.94;5069936;28;20192;-74
2020/12/28 00:55:16;;;;;;;5.17;3.57;;;;;;;-0.37;88.00;92235.53;5061800;28;20189;-74
2020/12/28 00:57:42;;;;;;;4.40;3.60;;;;;;;-0.31;88.11;92229.78;5071945;28;20184;-74
2020/12/28 01:00:07;;;;;;;3.70;3.30;;;;;;;-0.25;88.16;92230.09;5053383;28;20182;-74
2020/12/28 01:02:32;;;;;;;3.77;3.43;;;;;;;-0.23;88.07;92230.72;5035994;28;20555;-74
2020/12/28 01:04:58;;;;;;;3.33;2.73;;;;;;;-0.30;88.09;92221.16;5053627;28;20713;-74
2020/12/28 01:07:23;;;;;;;3.47;3.17;;;;;;;-0.22;88.20;92217.81;5071907;28;20173;-75
2020/12/28 01:09:48;;;;;;;4.07;3.10;;;;;;;-0.29;88.30;92215.09;5053552;28;20539;-75
2020/12/28 01:12:14;;;;;;;4.27;3.43;;;;;;;-0.23;88.04;92216.22;5053794;28;20173;-75
2020/12/28 01:14:39;;;;;;;4.87;3.40;;;;;;;-0.28;88.36;92219.25;5069572;28;20181;-75
2020/12/28 01:17:06;;;;;;;3.73;3.33;;;;;;;-0.22;88.42;92222.91;5053580;28;20687;-74
2020/12/28 01:19:31;;;;;;;4.97;3.77;;;;;;;-0.25;88.39;92217.34;5051435;28;20180;-74
2020/12/28 01:21:57;;;;;;;4.37;3.30;;;;;;;-0.26;88.16;92221.66;5061596;28;20765;-74
2020/12/28 01:24:22;;;;;;;3.63;3.33;;;;;;;-0.19;88.25;92234.53;5050232;28;20180;-74
2020/12/28 01:26:48;;;;;;;4.10;3.37;;;;;;;-0.23;88.49;92241.72;5071344;28;20199;-74
2020/12/28 01:29:13;;;;;;;5.00;3.50;;;;;;;-0.29;88.65;92230.41;5053462;28;20311;-75
2020/12/28 01:31:38;;;;;;;4.07;3.67;;;;;;;-0.25;88.66;92232.66;5071579;28;20174;-75
2020/12/28 01:34:04;;;;;;;3.87;3.43;;;;;;;-0.19;88.45;92240.41;5070335;28;20282;-74
2020/12/28 01:36:29;;;;;;;4.10;3.50;;;;;;;-0.20;88.30;92238.03;5070255;28;20208;-74
2020/12/28 01:38:54;;;;;;;4.70;3.70;;;;;;;-0.20;88.28;92232.94;5071235;28;20248;-75
2020/12/28 01:41:20;;;;;;;3.97;3.50;;;;;;;-0.22;88.22;92233.09;5053577;28;20551;-75
2020/12/28 01:43:45;;;;;;;4.40;3.97;;;;;;;-0.18;88.46;92241.22;5071451;28;20626;-75
2020/12/28 01:46:12;;;;;;;4.13;3.33;;;;;;;-0.26;88.34;92236.16;5051067;28;20744;-75
2020/12/28 01:48:37;;;;;;;4.83;3.43;;;;;;;-0.22;89.00;92243.31;5044189;28;20684;-75
2020/12/28 01:51:03;;;;;;;4.20;3.80;;;;;;;-0.20;88.22;92230.38;5053349;28;20207;-75
2020/12/28 01:53:29;;;;;;;5.67;3.70;;;;;;;-0.18;88.33;92234.34;5070026;28;20173;-75
2020/12/28 01:55:57;;;;;;;4.30;3.70;;;;;;;-0.22;88.15;92229.75;5068700;28;20691;-75
2020/12/28 01:58:23;;;;;;;3.73;3.43;;;;;;;-0.20;88.18;92228.63;5053101;28;20169;-75
2020/12/28 02:00:48;;;;;;;4.10;2.90;;;;;;;-0.17;88.04;92223.22;5071116;28;20173;-75
2020/12/28 02:03:14;;;;;;;3.20;2.90;;;;;;;-0.23;88.11;92231.50;5053402;28;20200;-75
2020/12/28 02:05:39;;;;;;;5.13;3.47;;;;;;;-0.29;88.40;92207.47;5052982;28;20201;-75
2020/12/28 02:08:05;;;;;;;5.07;3.53;;;;;;;-0.32;88.55;92201.91;5068623;28;20200;-75
2020/12/28 02:10:30;;;;;;;3.30;3.00;;;;;;;-0.32;88.23;92202.69;5053054;28;20188;-75
2020/12/28 02:12:56;;;;;;;4.27;3.77;;;;;;;-0.24;88.44;92213.84;5072687;28;20173;-75
2020/12/28 02:15:21;;;;;;;4.03;3.57;;;;;;;-0.29;88.59;92201.56;5056739;28;20200;-75
2020/12/28 02:17:46;;;;;;;3.53;3.23;;;;;;;-0.32;88.36;92200.16;5055379;28;20182;-75
2020/12/28 02:20:12;;;;;;;3.00;2.80;;;;;;;-0.35;88.48;92197.13;5065400;28;20533;-75
2020/12/28 02:22:39;;;;;;;3.70;3.40;;;;;;;-0.35;88.60;92192.84;5077035;28;20711;-75
2020/12/28 02:25:05;;;;;;;3.37;3.07;;;;;;;-0.33;88.63;92180.72;5093825;28;20192;-75
2020/12/28 02:27:30;;;;;;;3.73;3.43;;;;;;;-0.38;88.69;92187.25;5074260;28;20267;-74
2020/12/28 02:29:55;;;;;;;3.70;3.40;;;;;;;-0.39;88.63;92181.34;5056198;28;20241;-75
2020/12/28 02:32:21;;;;;;;4.40;3.53;;;;;;;-0.39;88.75;92178.81;5056666;28;20212;-74
2020/12/28 02:34:46;;;;;;;3.87;3.50;;;;;;;-0.32;88.96;92179.75;5074555;28;20212;-75
2020/12/28 02:37:11;;;;;;;3.87;3.47;;;;;;;-0.30;88.55;92180.38;5074490;28;20204;-75
2020/12/28 02:39:37;;;;;;;3.63;3.33;;;;;;;-0.29;88.39;92176.84;5072705;28;20210;-75
2020/12/28 02:42:02;;;;;;;3.63;3.33;;;;;;;-0.32;88.78;92168.75;5074282;28;20248;-75
2020/12/28 02:44:27;;;;;;;3.47;3.13;;;;;;;-0.39;88.65;92166.06;5056693;28;20219;-75
2020/12/28 02:46:53;;;;;;;4.13;3.70;;;;;;;-0.42;88.71;92176.59;5074225;28;20223;-75
2020/12/28 02:49:18;;;;;;;4.23;3.83;;;;;;;-0.37;88.63;92181.97;5054221;28;20259;-75
2020/12/28 02:51:43;;;;;;;4.10;3.70;;;;;;;-0.38;88.71;92180.41;5072978;28;20178;-75
2020/12/28 02:54:08;;;;;;;4.70;4.20;;;;;;;-0.38;88.40;92171.94;5056349;28;20576;-75
2020/12/28 02:56:34;;;;;;;4.13;3.73;;;;;;;-0.38;88.70;92169.41;5074021;28;20208;-75
2020/12/28 02:58:59;;;;;;;4.43;4.03;;;;;;;-0.38;88.79;92167.66;5056052;28;20189;-75
2020/12/28 03:01:25;;;;;;;4.93;4.43;;;;;;;-0.39;88.95;92165.28;5071875;28;20214;-75
2020/12/28 03:03:50;;;;;;;4.57;4.17;;;;;;;-0.39;88.49;92168.59;5080074;28;20184;-75
2020/12/28 03:06:15;;;;;;;4.67;4.20;;;;;;;-0.37;88.48;92145.50;5073869;28;20185;-75
2020/12/28 03:08:40;;;;;;;4.70;4.23;;;;;;;-0.42;88.56;92132.47;5055851;28;20177;-75
2020/12/28 03:11:06;;;;;;;5.10;4.13;;;;;;;-0.39;88.62;92130.38;5072519;28;20190;-75
2020/12/28 03:13:31;;;;;;;4.57;4.17;;;;;;;-0.39;88.64;92132.13;5073102;28;20207;-75
2020/12/28 03:15:56;;;;;;;4.80;4.40;;;;;;;-0.40;88.67;92131.34;5058753;28;20344;-75
2020/12/28 03:18:22;;;;;;;4.33;3.93;;;;;;;-0.46;88.57;92139.63;5094008;28;20524;-75
2020/12/28 03:20:47;;;;;;;4.80;4.10;;;;;;;-0.40;88.65;92148.38;5074497;28;20176;-75
2020/12/28 03:23:12;;;;;;;4.70;4.20;;;;;;;-0.50;88.80;92147.78;5069063;28;20180;-75
2020/12/28 03:25:38;;;;;;;5.27;4.77;;;;;;;-0.50;88.73;92147.78;5055668;28;20197;-75
2020/12/28 03:28:03;;;;;;;5.10;4.60;;;;;;;-0.48;89.31;92150.97;5055786;28;20184;-75
2020/12/28 03:30:28;;;;;;;6.00;4.83;;;;;;;-0.55;89.07;92145.72;5055335;28;20192;-76
2020/12/28 03:32:53;;;;;;;5.83;5.23;;;;;;;-0.47;89.01;92152.53;5054453;28;20698;-75
2020/12/28 03:35:19;;;;;;;5.47;4.97;;;;;;;-0.49;88.99;92150.16;5064671;28;20281;-75
2020/12/28 03:37:44;;;;;;;6.83;5.43;;;;;;;-0.48;89.02;92146.66;5075548;28;20300;-76
2020/12/28 03:40:10;;;;;;;6.93;6.13;;;;;;;-0.46;88.84;92144.72;5075423;28;20237;-75
2020/12/28 03:42:35;;;;;;;7.30;6.60;;;;;;;-0.43;89.08;92141.09;5069369;28;20555;-75
2020/12/28 03:45:00;;;;;;;6.60;5.97;;;;;;;-0.49;88.70;92139.97;5055061;28;20695;-75
2020/12/28 03:47:25;;;;;;;7.50;6.60;;;;;;;-0.42;89.02;92146.00;5074116;28;20183;-76
2020/12/28 03:49:51;;;;;;;7.57;6.77;;;;;;;-0.45;88.90;92132.78;5075111;28;20226;-76
2020/12/28 03:52:16;;;;;;;8.17;7.37;;;;;;;-0.38;89.14;92126.84;5093371;28;20219;-75
2020/12/28 03:54:41;;;;;;;7.50;6.67;;;;;;;-0.39;88.92;92120.19;5057227;28;20598;-75
2020/12/28 03:57:07;;;;;;;7.57;6.77;;;;;;;-0.39;89.23;92115.06;5055149;28;20213;-75
2020/12/28 03:59:32;;;;;;;8.70;7.80;;;;;;;-0.37;89.01;92104.72;5054857;28;20537;-75
2020/12/28 04:01:57;;;;;;;10.30;8.20;;;;;;;-0.35;88.62;92106.16;5055098;28;20200;-75
2020/12/28 04:04:22;;;;;;;7.77;6.97;;;;;;;-0.35;88.81;92123.22;5071805;28;20224;-75
2020/12/28 04:06:48;;;;;;;8.33;7.33;;;;;;;-0.38;89.18;92131.16;5062987;28;20204;-75
2020/12/28 04:09:13;;;;;;;8.03;7.23;;;;;;;-0.38;89.18;92120.97;5054657;28;20711;-75
2020/12/28 04:11:38;;;;;;;8.80;7.90;;;;;;;-0.37;89.13;92115.69;5072762;28;20180;-75
2020/12/28 04:14:04;;;;;;;8.27;7.23;;;;;;;-0.49;89.34;92099.19;5054699;28;20227;-75
2020/12/28 04:16:29;;;;;;;9.50;8.00;;;;;;;-0.48;89.47;92120.38;5052401;28;20263;-75
2020/12/28 04:18:54;;;;;;;9.10;7.90;;;;;;;-0.44;89.58;92124.16;5072310;28;20192;-75
2020/12/28 04:21:20;;;;;;;8.63;7.83;;;;;;;-0.44;89.40;92122.44;5054723;28;20659;-75
2020/12/28 04:23:45;;;;;;;9.00;8.00;;;;;;;-0.45;89.43;92115.72;5054652;28;20209;-75
2020/12/28 04:26:10;;;;;;;8.97;8.07;;;;;;;-0.41;89.40;92106.00;5069986;28;20200;-75
2020/12/28 04:28:36;;;;;;;9.37;8.47;;;;;;;-0.45;89.27;92100.44;5072068;28;20261;-75
2020/12/28 04:31:01;;;;;;;9.67;7.43;;;;;;;-0.44;89.22;92099.50;5054576;28;20236;-75
2020/12/28 04:33:27;;;;;;;8.73;7.83;;;;;;;-0.45;89.06;92108.09;5072320;28;20177;-75
2020/12/28 04:35:52;;;;;;;8.97;8.03;;;;;;;-0.46;89.40;92111.59;5051537;28;20224;-75
2020/12/28 04:38:17;;;;;;;8.73;7.83;;;;;;;-0.45;89.44;92110.63;5071998;28;20706;-75
2020/12/28 04:40:43;;;;;;;7.90;6.67;;;;;;;-0.46;89.42;92103.94;5071893;28;20207;-75
2020/12/28 04:43:12;;;;;;;9.70;8.50;;;;;;;-0.47;89.53;92086.28;5054362;28;20180;-75
2020/12/28 04:45:38;;;;;;;8.63;7.73;;;;;;;-0.46;89.42;92085.31;5070781;28;20200;-76
2020/12/28 04:48:08;;;;;;;8.50;7.57;;;;;;;-0.52;89.46;92086.78;5049701;28;20265;-75
2020/12/28 04:50:35;;;;;;;9.50;7.37;;;;;;;-0.49;89.54;92080.56;5098777;28;20279;-75
2020/12/28 04:53:02;;;;;;;10.93;7.60;;;;;;;-0.43;89.50;92083.25;5074226;28;20178;-75
2020/12/28 04:55:27;;;;;;;8.30;7.27;;;;;;;-0.51;89.47;92085.81;5090814;28;20208;-75
2020/12/28 04:57:53;;;;;;;8.37;7.13;;;;;;;-0.53;89.65;92090.31;5075915;28;20657;-75
2020/12/28 05:00:18;;;;;;;8.73;7.33;;;;;;;-0.43;89.63;92085.78;5061872;28;20212;-75
2020/12/28 05:02:43;;;;;;;7.60;6.90;;;;;;;-0.49;89.34;92095.84;5071904;28;20174;-76
2020/12/28 05:05:09;;;;;;;8.27;7.43;;;;;;;-0.46;89.57;92096.31;5053960;28;20260;-76
2020/12/28 05:07:35;;;;;;;7.80;7.00;;;;;;;-0.41;89.50;92096.59;5036316;28;20581;-75
2020/12/28 05:10:00;;;;;;;7.30;6.60;;;;;;;-0.45;89.33;92095.34;5053209;28;20173;-75
2020/12/28 05:12:25;;;;;;;7.80;7.10;;;;;;;-0.42;89.48;92092.47;5070555;28;20176;-75
2020/12/28 05:14:51;;;;;;;7.07;6.37;;;;;;;-0.46;89.57;92093.75;5071722;28;20181;-75
2020/12/28 05:17:16;;;;;;;6.97;6.07;;;;;;;-0.43;89.84;92095.19;5053396;28;20209;-75
2020/12/28 05:19:41;;;;;;;6.67;6.00;;;;;;;-0.37;89.59;92089.41;5051514;28;20211;-75
2020/12/28 05:22:07;;;;;;;6.90;6.23;;;;;;;-0.35;89.65;92090.84;5069400;28;20644;-75
2020/12/28 05:24:32;;;;;;;5.63;5.13;;;;;;;-0.34;89.57;92089.88;5091910;28;20180;-75
2020/12/28 05:26:58;;;;;;;6.20;5.37;;;;;;;-0.32;89.63;92095.59;5056897;28;20583;-75
2020/12/28 05:29:25;;;;;;;6.00;5.47;;;;;;;-0.29;89.79;92095.25;5078476;28;20210;-74
2020/12/28 05:31:52;;;;;;;5.40;4.90;;;;;;;-0.30;89.49;92087.78;5061781;28;20177;-75
2020/12/28 05:34:21;;;;;;;6.20;5.60;;;;;;;-0.30;89.86;92085.25;5087199;28;20173;-75
2020/12/28 05:36:51;;;;;;;5.80;5.30;;;;;;;-0.29;89.73;92086.81;5053496;28;20201;-75
2020/12/28 05:39:20;;;;;;;6.30;5.50;;;;;;;-0.24;89.72;92092.22;5051443;28;20186;-75
2020/12/28 05:42:12;;;;;;;5.37;4.87;;;;;;;-0.33;89.95;92088.94;5053537;28;20177;-75
2020/12/28 05:44:43;;;;;;;5.60;5.10;;;;;;;-0.34;89.56;92092.44;5052538;28;20199;-75
2020/12/28 05:47:10;;;;;;;6.10;5.23;;;;;;;-0.35;89.78;92085.75;5055438;28;20173;-75
2020/12/28 05:49:37;;;;;;;5.33;4.83;;;;;;;-0.30;89.70;92077.59;5091027;28;20180;-75
2020/12/28 05:52:03;;;;;;;5.20;4.70;;;;;;;-0.27;90.13;92087.44;5073050;28;20271;-75
2020/12/28 05:54:28;;;;;;;5.47;5.07;;;;;;;-0.29;89.94;92082.53;5040772;28;20660;-75
2020/12/28 05:56:57;;;;;;;5.07;4.57;;;;;;;-0.31;89.79;92084.44;5057325;28;20215;-75
2020/12/28 05:59:22;;;;;;;4.93;4.47;;;;;;;-0.27;89.79;92084.91;5057230;28;20184;-75
2020/12/28 06:01:48;;;;;;;4.40;4.00;;;;;;;-0.32;89.60;92082.88;5036164;28;20242;-75
2020/12/28 06:04:15;;;;;;;4.53;4.13;;;;;;;-0.24;89.43;92086.34;5043042;28;20189;-75
2020/12/28 06:06:41;;;;;;;4.53;4.13;;;;;;;-0.33;89.86;92088.94;5057141;28;20197;-75
2020/12/28 06:09:07;;;;;;;3.87;3.57;;;;;;;-0.29;89.53;92090.16;5095171;28;20695;-75
2020/12/28 06:11:32;;;;;;;4.07;3.70;;;;;;;-0.30;89.84;92080.13;5071346;28;20280;-76
2020/12/28 06:13:58;;;;;;;4.10;3.70;;;;;;;-0.28;89.97;92081.56;5073636;28;20185;-76
2020/12/28 06:16:23;;;;;;;4.40;4.00;;;;;;;-0.21;89.61;92086.00;5056514;28;20344;-76
2020/12/28 06:18:56;;;;;;;4.30;3.90;;;;;;;-0.24;89.89;92091.44;5074687;28;20181;-75
2020/12/28 06:21:21;;;;;;;3.70;3.40;;;;;;;-0.14;89.70;92092.00;5057066;28;20200;-75
2020/12/28 06:23:50;;;;;;;4.30;3.90;;;;;;;-0.23;89.63;92087.94;5072615;28;20625;-75
2020/12/28 06:26:20;;;;;;;4.03;3.63;;;;;;;-0.29;89.74;92090.16;5056627;28;20204;-75
2020/12/28 06:28:46;;;;;;;4.23;3.83;;;;;;;-0.22;89.85;92094.59;5074367;28;20185;-75
2020/12/28 06:31:11;;;;;;;3.70;3.40;;;;;;;-0.21;89.82;92094.44;5056852;28;20327;-75
2020/12/28 06:33:47;;;;;;;3.87;3.57;;;;;;;-0.19;89.61;92089.16;5072344;28;20704;-75
2020/12/28 06:36:13;;;;;;;3.90;3.60;;;;;;;-0.17;89.56;92090.59;5049506;28;20269;-75
2020/12/28 06:38:39;;;;;;;3.50;3.27;;;;;;;-0.18;89.67;92088.19;5065060;28;20188;-75
2020/12/28 06:41:04;;;;;;;3.57;3.27;;;;;;;-0.17;89.82;92087.25;5056488;28;20211;-75
2020/12/28 06:43:38;;;;;;;3.57;3.27;;;;;;;-0.23;89.86;92098.13;5072620;28;20254;-75
2020/12/28 06:46:03;;;;;;;4.07;3.10;;;;;;;-0.22;89.89;92100.50;5056397;28;20207;-76
2020/12/28 06:48:29;;;;;;;3.03;2.73;;;;;;;-0.19;89.94;92091.72;5056355;28;20185;-75
2020/12/28 06:50:55;;;;;;;2.90;2.70;;;;;;;-0.18;89.81;92096.63;5074356;28;20181;-76
2020/12/28 06:53:21;;;;;;;2.77;2.53;;;;;;;-0.15;89.74;92095.53;5090005;28;20181;-75
2020/12/28 06:55:47;;;;;;;2.87;2.60;;;;;;;-0.21;89.42;92104.63;5071850;28;20216;-75
2020/12/28 06:58:13;;;;;;;2.57;2.33;;;;;;;-0.16;89.73;92091.41;5071981;28;20188;-75
2020/12/28 07:00:38;;;;;;;3.03;2.30;;;;;;;-0.18;89.80;92094.09;5072741;28;20184;-75
2020/12/28 07:03:11;;;;;;;2.40;2.20;;;;;;;-0.22;89.91;92089.50;5074036;28;20177;-75
2020/12/28 07:05:36;;;;;;;2.60;2.30;;;;;;;-0.19;89.79;92091.72;5050613;28;20202;-75
2020/12/28 07:08:01;;;;;;;2.00;1.90;;;;;;;-0.20;89.52;92088.38;5085488;28;20226;-75
2020/12/28 07:10:27;;;;;;;1.97;1.87;;;;;;;-0.11;89.46;92100.13;5071651;28;20196;-75
2020/12/28 07:12:52;;;;;;;2.10;1.87;;;;;;;-0.15;89.47;92095.53;5055607;28;20189;-75
2020/12/28 07:15:18;;;;;;;2.80;1.67;;;;;;;-0.17;89.20;92097.47;5053981;28;20576;-75
2020/12/28 07:17:43;;;;;;;1.70;1.60;;;;;;;-0.14;89.35;92086.91;5053940;28;20201;-75
2020/12/28 07:20:13;;;;;;;1.40;1.30;;;;;;;-0.18;89.45;92090.75;5055642;28;20185;-75
2020/12/28 07:22:40;;;;;;;1.80;1.70;;;;;;;-0.18;88.98;92090.75;5056249;28;20256;-75
2020/12/28 07:25:07;;;;;;;1.63;1.50;;;;;;;-0.19;89.09;92089.97;5073718;28;20288;-75
2020/12/28 07:27:33;;;;;;;1.50;1.40;;;;;;;-0.18;89.13;92094.09;5070270;28;20229;-75
2020/12/28 07:30:04;;;;;;;1.80;1.70;;;;;;;-0.20;89.47;92101.13;5083884;28;20232;-75
2020/12/28 07:32:30;;;;;;;1.90;1.30;;;;;;;-0.21;89.41;92093.63;5072378;28;20180;-75
2020/12/28 07:34:55;;;;;;;2.40;1.83;;;;;;;-0.19;89.33;92089.16;5075564;28;20187;-75
2020/12/28 07:37:21;;;;;;;1.50;1.40;;;;;;;-0.19;89.37;92086.63;5064283;28;20221;-75
2020/12/28 07:39:48;;;;;;;3.13;2.60;;;;;;;-0.18;89.20;92090.75;5096972;28;20267;-75
2020/12/28 07:42:18;;;;;;;1.30;1.20;;;;;;;-0.19;89.15;92087.41;5073296;28;20205;-75
2020/12/28 07:44:50;;;;;;;1.70;1.40;;;;;;;-0.20;89.14;92073.06;5071838;28;20227;-75
2020/12/28 07:47:16;;;;;;;1.80;1.70;;;;;;;-0.28;89.00;92079.00;5053642;28;20256;-74
2020/12/28 07:49:42;;;;;;;2.97;2.47;;;;;;;-0.22;89.03;92071.66;5072111;28;20705;-74
2020/12/28 07:52:12;;;;;;;1.90;1.80;;;;;;;-0.22;88.95;92072.44;5055127;28;20177;-75
2020/12/28 07:54:44;;;;;;;1.60;1.50;;;;;;;-0.26;89.49;92071.22;5055356;28;20227;-75
2020/12/28 07:57:16;;;;;;;1.50;1.40;;;;;;;-0.28;88.81;92075.66;5055320;28;20604;-75
2020/12/28 07:59:59;;;;;;;1.40;1.30;;;;;;;-0.18;88.35;92085.66;5067681;28;20188;-75
2020/12/28 08:03:11;;;;;;;1.90;1.80;;;;;;;-0.29;89.09;92084.28;5078879;28;20196;-75
2020/12/28 08:05:36;;;;;;;1.30;1.20;;;;;;;-0.30;89.00;92083.47;5029643;28;20616;-74
2020/12/28 08:08:02;;;;;;;4.27;3.40;;;;;;;-0.32;89.01;92080.31;5013173;28;20213;-75
2020/12/28 08:10:27;;;;;;;2.30;2.10;;;;;;;-0.33;88.98;92073.63;5014953;28;20274;-75
2020/12/28 08:13:00;;;;;;;2.20;1.87;;;;;;;-0.27;88.91;92074.69;5036158;28;20276;-75
2020/12/28 08:15:30;;;;;;;3.17;2.87;;;;;;;-0.23;88.67;92075.19;5030136;28;20208;-75
2020/12/28 08:18:24;;;;;;;3.13;2.60;;;;;;;-0.21;88.42;92068.94;5013030;28;20182;-75
2020/12/28 08:20:56;;;;;;;2.37;2.17;;;;;;;-0.21;88.50;92070.69;4950091;28;20247;-74
2020/12/28 08:23:28;;;;;;;2.97;1.90;;;;;;;-0.21;88.43;92061.28;4951998;29;20189;-74
2020/12/28 08:25:53;;;;;;;2.17;2.07;;;;;;;-0.20;88.58;92064.63;4952159;29;20204;-75
2020/12/28 08:28:20;;;;;;;2.40;2.20;;;;;;;-0.12;88.73;92072.22;4952093;29;20557;-74
2020/12/28 08:30:51;;;;;;;3.93;1.70;;;;;;;-0.16;88.30;92064.13;5087729;27;20537;-75
2020/12/28 08:33:18;;;;;;;2.17;2.03;;;;;;;-0.17;88.50;92062.56;5070204;28;20204;-75
2020/12/28 08:35:50;;;;;;;3.43;1.80;;;;;;;-0.11;88.49;92056.75;5069112;28;20197;-74
2020/12/28 08:38:16;;;;;;;1.83;1.70;;;;;;;-0.10;88.11;92058.34;5067745;28;20231;-75
2020/12/28 08:40:41;;;;;;;2.10;1.90;;;;;;;-0.09;88.18;92062.50;5066396;28;20205;-75
2020/12/28 08:43:07;;;;;;;2.67;1.90;;;;;;;-0.06;87.85;92069.81;5065226;28;20197;-76
2020/12/28 08:45:32;;;;;;;2.03;1.83;;;;;;;-0.05;88.18;92065.50;5078283;28;20727;-76
2020/12/28 08:47:58;;;;;;;2.83;2.10;;;;;;;-0.08;87.77;92076.06;5078991;28;20551;-76
2020/12/28 08:50:25;;;;;;;2.23;2.03;;;;;;;-0.09;87.93;92071.88;5011264;28;20226;-76
2020/12/28 08:52:56;;;;;;;1.83;1.73;;;;;;;-0.04;87.97;92074.75;5014912;28;20191;-76
2020/12/28 08:55:22;;;;;;;2.20;2.10;;;;;;;-0.07;88.12;92064.88;5027151;28;20208;-77
2020/12/28 08:57:53;;;;;;;2.33;2.13;;;;;;;0.03;87.59;92067.22;5044085;28;20677;-75
2020/12/28 09:00:18;;;;;;;2.50;2.30;;;;;;;0.00;87.67;92065.81;5010875;28;20182;-76
2020/12/28 09:02:51;;;;;;;2.57;2.37;;;;;;;-0.02;87.69;92065.94;5011597;28;20252;-75
2020/12/28 09:05:16;;;;;;;2.63;2.43;;;;;;;-0.03;88.01;92058.47;5045986;28;20202;-75
2020/12/28 09:07:42;;;;;;;2.47;2.27;;;;;;;-0.06;88.25;92062.16;5028439;28;20179;-76
2020/12/28 09:10:07;;;;;;;2.83;2.53;;;;;;;-0.02;87.72;92068.50;5026923;28;20297;-75
2020/12/28 09:12:32;;;;;;;2.37;2.17;;;;;;;-0.07;88.06;92059.78;5028346;28;20215;-75
2020/12/28 09:14:58;;;;;;;3.70;3.40;;;;;;;-0.01;87.89;92062.44;5024794;28;20549;-76
2020/12/28 09:17:23;;;;;;;3.83;3.53;;;;;;;0.00;87.77;92063.25;5043753;28;20197;-76
2020/12/28 09:19:49;;;;;;;4.00;3.27;;;;;;;0.12;87.51;92058.53;5026970;28;20180;-76
2020/12/28 09:22:14;;;;;;;2.77;2.53;;;;;;;0.10;87.37;92056.16;5026869;28;20326;-76
2020/12/28 09:24:39;;;;;;;2.20;2.00;;;;;;;0.22;87.28;92052.25;5025169;28;20229;-76
2020/12/28 09:27:05;;;;;;;3.03;2.83;;;;;;;0.25;87.20;92044.22;5027995;28;20202;-75
2020/12/28 09:29:30;;;;;;;2.50;2.30;;;;;;;0.33;86.79;92043.38;5027580;28;20264;-76
2020/12/28 09:31:56;;;;;;;3.00;2.70;;;;;;;0.36;86.54;92039.72;5010186;28;20196;-75
2020/12/28 09:34:22;;;;;;;3.20;2.90;;;;;;;0.39;86.82;92039.34;5025212;28;20182;-76
2020/12/28 09:36:57;;;;;;;2.90;2.63;;;;;;;0.39;86.86;92047.81;5027716;28;20696;-76
2020/12/28 09:39:23;;;;;;;4.37;3.10;;;;;;;0.47;86.42;92054.59;5026493;28;20227;-76
2020/12/28 09:41:48;;;;;;;2.97;2.67;;;;;;;0.52;86.37;92048.00;5016006;28;20572;-76
2020/12/28 09:44:13;;;;;;;3.20;2.90;;;;;;;0.52;85.88;92047.22;5014617;28;20237;-76
2020/12/28 09:46:38;;;;;;;3.17;2.87;;;;;;;0.59;86.01;92047.31;5011632;28;20238;-76
2020/12/28 09:49:04;;;;;;;3.20;2.90;;;;;;;0.58;86.03;92049.06;5013135;28;20215;-76
2020/12/28 09:51:29;;;;;;;3.20;2.70;;;;;;;0.68;86.16;92046.28;5010104;28;20188;-76
2020/12/28 09:53:54;;;;;;;2.30;2.10;;;;;;;0.75;85.40;92052.28;4993695;28;20210;-76
2020/12/28 09:56:20;;;;;;;2.47;2.00;;;;;;;0.81;84.92;92054.16;4999200;28;20203;-76
2020/12/28 09:58:45;;;;;;;2.23;2.03;;;;;;;0.81;85.00;92052.38;5012806;28;20185;-77
2020/12/28 10:01:10;;;;;;;2.40;2.20;;;;;;;0.83;85.27;92040.22;5014231;28;20190;-76
2020/12/28 10:03:36;;;;;;;2.60;2.40;;;;;;;0.89;85.02;92037.94;5012921;28;20558;-76
2020/12/28 10:06:30;;;;;;;2.53;1.83;;;;;;;0.96;84.71;92038.81;5012978;28;20199;-76
2020/12/28 10:08:47;;;;;;;1.57;1.47;;;;;;;0.99;83.92;92038.47;5018473;28;20218;-76
2020/12/28 10:11:12;;;;;;;2.40;2.20;;;;;;;1.09;84.37;92044.13;5014217;28;20647;-76
2020/12/28 10:13:38;;;;;;;3.23;2.80;;;;;;;1.09;83.99;92051.78;5012913;28;20186;-76
2020/12/28 10:16:03;;;;;;;1.80;1.70;;;;;;;1.15;83.76;92040.88;5012877;28;20196;-76
2020/12/28 10:18:28;;;;;;;2.23;2.00;;;;;;;1.25;83.20;92040.59;5010669;28;20338;-76
2020/12/28 10:20:53;;;;;;;2.10;1.90;;;;;;;1.36;83.34;92033.25;4999733;28;20647;-76
2020/12/28 10:23:19;;;;;;;2.20;2.00;;;;;;;1.38;83.50;92043.31;4993160;28;20179;-76
2020/12/28 10:25:44;;;;;;;1.53;1.43;;;;;;;1.39;82.65;92050.00;4976829;28;20210;-74
2020/12/28 10:28:09;;;;;;;2.33;1.70;;;;;;;1.38;83.22;92046.66;4998485;28;20211;-74
2020/12/28 10:30:35;;;;;;;1.90;1.77;;;;;;;1.35;82.84;92038.56;5028502;28;20207;-75
2020/12/28 10:33:00;;;;;;;2.10;1.90;;;;;;;1.31;83.08;92037.31;5012577;28;20190;-75
2020/12/28 10:35:25;;;;;;;1.80;1.37;;;;;;;1.31;83.53;92038.09;4996038;28;20242;-75
2020/12/28 10:37:50;;;;;;;1.80;1.70;;;;;;;1.42;82.94;92039.44;5012326;28;20241;-75
2020/12/28 10:40:16;;;;;;;2.13;1.97;;;;;;;1.41;83.22;92037.81;5012076;28;20286;-75
2020/12/28 10:42:41;;;;;;;1.87;1.70;;;;;;;1.29;83.20;92034.94;5000029;28;20536;-75
2020/12/28 10:45:07;;;;;;;1.97;1.80;;;;;;;1.32;83.46;92033.78;4976404;28;20207;-77
2020/12/28 10:47:32;;;;;;;2.30;2.10;;;;;;;1.34;83.67;92030.09;4976485;28;20659;-76
2020/12/28 10:49:57;;;;;;;2.70;1.97;;;;;;;1.31;83.54;92030.44;5005249;28;20209;-77
2020/12/28 10:52:23;;;;;;;2.47;2.27;;;;;;;1.29;84.03;92017.03;5029179;28;20233;-76
2020/12/28 10:54:48;;;;;;;1.97;1.87;;;;;;;1.28;84.06;92018.03;5012019;28;20593;-76
2020/12/28 10:57:13;;;;;;;1.87;1.70;;;;;;;1.40;83.58;92015.78;5012027;28;20727;-77
2020/12/28 10:59:39;;;;;;;2.30;1.97;;;;;;;1.50;83.43;92007.84;5010269;28;20190;-74
2020/12/28 11:02:04;;;;;;;3.10;2.10;;;;;;;1.41;83.87;92012.25;5012271;28;20190;-75
2020/12/28 11:04:29;;;;;;;2.70;2.30;;;;;;;1.37;83.65;91996.50;4992381;28;20227;-76
2020/12/28 11:06:55;;;;;;;3.30;2.20;;;;;;;1.43;84.29;92000.13;5008738;28;20663;-77
2020/12/28 11:09:20;;;;;;;3.07;2.60;;;;;;;1.42;84.05;92001.88;4975610;28;20211;-76
2020/12/28 11:11:49;;;;;;;5.37;3.80;;;;;;;1.47;83.90;91995.41;4991868;28;20739;-77
2020/12/28 11:14:15;;;;;;;9.63;6.40;;;;;;;1.51;83.94;91999.22;5027879;28;20579;-76
2020/12/28 11:16:40;;;;;;;4.63;3.40;;;;;;;1.47;84.26;91996.22;5011595;28;20214;-76
2020/12/28 11:19:05;;;;;;;4.27;2.67;;;;;;;1.42;84.21;92003.66;5011575;28;20190;-75
2020/12/28 11:21:31;;;;;;;3.37;2.87;;;;;;;1.47;84.36;92008.22;5011079;28;20195;-76
2020/12/28 11:23:59;;;;;;;6.20;3.37;;;;;;;1.40;84.41;91998.69;5016836;28;20203;-76
2020/12/28 11:26:26;;;;;;;4.03;2.40;;;;;;;1.37;84.07;92001.63;5012517;28;20690;-76
2020/12/28 11:28:51;;;;;;;3.20;2.70;;;;;;;1.28;84.54;92007.78;5027709;28;20206;-77
2020/12/28 11:31:17;;;;;;;2.47;2.27;;;;;;;1.38;84.65;92012.63;5012713;28;20262;-76